Time;durP1;ratioP1;P1;durP2;ratioP2;P2;SDS_P1;SDS_P2;PMS_P1;PMS_P2;Temp;Humidity;BMP_temperature;BMP_pressure;BME280_temperature;BME280_humidity;BME280_pressure;Samples;Min_cycle;Max_cycle;Signal;HPM_P1;HPM_P2
2024/01/04 00:00:29;;;;;;;4.45;0.90;;;;;;;7.20;100.00;95478.81;5004191;28;20111;-70
2024/01/04 00:02:55;;;;;;;3.17;0.80;;;;;;;7.13;100.00;95474.13;5007498;28;20111;-72
2024/01/04 00:05:20;;;;;;;2.95;0.70;;;;;;;7.14;100.00;95472.16;4998715;28;20493;-73
2024/01/04 00:07:45;;;;;;;1.45;0.55;;;;;;;7.13;100.00;95482.28;5019706;28;20242;-72
2024/01/04 00:10:13;;;;;;;4.30;0.68;;;;;;;7.02;100.00;95481.38;4994045;28;20050;-71
2024/01/04 00:12:39;;;;;;;3.05;0.80;;;;;;;7.03;100.00;95480.22;5000998;28;20065;-71
2024/01/04 00:15:05;;;;;;;2.63;0.70;;;;;;;6.99;100.00;95487.56;4996987;28;20495;-70
2024/01/04 00:17:31;;;;;;;3.60;0.70;;;;;;;7.12;100.00;95496.25;5027146;28;20100;-72
2024/01/04 00:19:57;;;;;;;2.47;0.60;;;;;;;7.05;100.00;95484.13;5012505;28;20053;-71
2024/01/04 00:22:22;;;;;;;3.55;0.90;;;;;;;7.05;100.00;95478.69;4998320;28;20053;-71
2024/01/04 00:24:48;;;;;;;2.05;0.70;;;;;;;7.04;100.00;95487.22;5036550;28;20096;-70
2024/01/04 00:27:14;;;;;;;7.05;2.45;;;;;;;7.06;100.00;95491.16;4998941;28;20046;-69
2024/01/04 00:29:40;;;;;;;2.17;0.70;;;;;;;7.03;100.00;95483.72;5005937;28;20074;-70
2024/01/04 00:32:06;;;;;;;7.32;0.82;;;;;;;7.01;100.00;95494.22;5015595;28;20030;-70
2024/01/04 00:34:32;;;;;;;3.45;0.85;;;;;;;6.96;100.00;95499.97;5036178;28;20041;-71
2024/01/04 00:36:58;;;;;;;3.45;0.90;;;;;;;7.01;100.00;95504.31;5035723;28;20041;-70
2024/01/04 00:39:24;;;;;;;3.92;0.80;;;;;;;6.98;100.00;95508.56;5024658;28;20042;-72
2024/01/04 00:41:53;;;;;;;3.50;0.75;;;;;;;6.93;100.00;95489.06;5038760;28;20037;-71
2024/01/04 00:44:19;;;;;;;3.43;0.60;;;;;;;6.85;100.00;95490.91;5021798;28;20045;-70
2024/01/04 00:46:44;;;;;;;3.28;0.85;;;;;;;6.81;100.00;95488.16;5026277;28;20040;-73
2024/01/04 00:49:09;;;;;;;3.75;0.88;;;;;;;6.84;100.00;95497.50;5016246;28;20128;-72
2024/01/04 00:51:35;;;;;;;3.17;0.70;;;;;;;6.90;100.00;95496.03;5024620;28;20091;-70
2024/01/04 00:54:01;;;;;;;3.78;1.20;;;;;;;6.91;100.00;95497.59;5018640;28;20127;-71
2024/01/04 00:56:31;;;;;;;2.72;0.93;;;;;;;6.91;100.00;95500.31;5019690;28;20030;-73
2024/01/04 00:58:56;;;;;;;1.13;0.70;;;;;;;6.90;100.00;95501.47;5044274;28;20181;-70
2024/01/04 01:01:22;;;;;;;2.75;0.80;;;;;;;6.87;100.00;95486.66;5005245;28;20804;-71
2024/01/04 01:03:47;;;;;;;3.25;0.90;;;;;;;7.02;100.00;95503.94;5018581;28;20033;-71
2024/01/04 01:06:12;;;;;;;2.75;0.80;;;;;;;6.99;100.00;95512.84;5007385;28;20451;-71
2024/01/04 01:08:38;;;;;;;3.63;1.00;;;;;;;7.00;100.00;95511.69;5015669;28;20077;-70
2024/01/04 01:11:03;;;;;;;4.03;0.77;;;;;;;7.03;100.00;95530.00;5031980;28;20037;-72
2024/01/04 01:13:29;;;;;;;2.72;0.80;;;;;;;7.06;100.00;95533.94;5011262;28;20374;-70
2024/01/04 01:15:54;;;;;;;1.27;0.63;;;;;;;7.04;100.00;95522.63;5019100;28;20042;-70
2024/01/04 01:18:19;;;;;;;6.07;0.88;;;;;;;7.16;100.00;95535.97;5009612;28;20046;-73
2024/01/04 01:20:45;;;;;;;3.65;0.80;;;;;;;7.14;100.00;95538.28;5013686;28;20124;-71
2024/01/04 01:23:10;;;;;;;2.85;0.63;;;;;;;7.17;100.00;95548.44;5010322;28;20045;-69
2024/01/04 01:25:36;;;;;;;1.73;0.85;;;;;;;7.09;100.00;95546.78;5011212;28;20040;-73
2024/01/04 01:28:01;;;;;;;1.73;0.50;;;;;;;7.08;100.00;95537.06;5019385;28;20396;-70
2024/01/04 01:30:29;;;;;;;2.58;0.70;;;;;;;7.09;100.00;95546.78;5016157;28;20369;-71
2024/01/04 01:32:54;;;;;;;1.38;0.63;;;;;;;7.12;100.00;95551.50;5010060;28;20033;-72
2024/01/04 01:35:20;;;;;;;1.55;0.80;;;;;;;7.10;100.00;95550.31;4994926;28;20064;-73
2024/01/04 01:37:46;;;;;;;0.73;0.60;;;;;;;7.04;100.00;95547.13;5017245;28;20041;-74
2024/01/04 01:40:12;;;;;;;0.90;0.60;;;;;;;7.07;100.00;95551.81;5014909;28;20077;-72
2024/01/04 01:42:37;;;;;;;0.68;0.50;;;;;;;7.12;100.00;95556.16;5031013;28;20038;-72
2024/01/04 01:45:03;;;;;;;1.20;0.50;;;;;;;7.10;100.00;95561.22;5015459;28;20064;-73
2024/01/04 01:47:29;;;;;;;4.15;0.68;;;;;;;7.03;100.00;95559.19;5022668;28;20459;-72
2024/01/04 01:49:54;;;;;;;2.25;0.60;;;;;;;7.10;100.00;95569.38;5014912;28;20049;-74
2024/01/04 01:52:21;;;;;;;2.38;0.50;;;;;;;6.94;100.00;95572.28;5013363;28;20037;-74
2024/01/04 01:54:48;;;;;;;4.55;0.98;;;;;;;6.88;100.00;95555.50;5005819;28;20053;-72
2024/01/04 01:57:17;;;;;;;1.13;0.60;;;;;;;6.83;100.00;95562.03;5002940;28;20049;-73
2024/01/04 01:59:44;;;;;;;2.47;0.77;;;;;;;6.77;100.00;95549.94;5011179;28;20115;-73
2024/01/04 02:02:09;;;;;;;3.05;0.70;;;;;;;6.81;100.00;95563.59;5013316;28;20085;-71
2024/01/04 02:04:35;;;;;;;1.60;0.73;;;;;;;6.84;100.00;95563.63;5011676;28;20049;-71
2024/01/04 02:07:00;;;;;;;3.35;0.63;;;;;;;6.76;100.00;95553.03;5012833;28;20429;-72
2024/01/04 02:09:26;;;;;;;1.98;0.70;;;;;;;6.78;100.00;95558.88;5014836;28;20615;-72
2024/01/04 02:11:51;;;;;;;3.60;0.65;;;;;;;6.82;100.00;95565.13;5014522;28;20041;-73
2024/01/04 02:14:17;;;;;;;4.50;0.85;;;;;;;6.76;100.00;95561.19;5016919;28;20041;-72
2024/01/04 02:16:42;;;;;;;4.43;0.70;;;;;;;6.68;100.00;95558.38;5022343;28;20614;-72
2024/01/04 02:19:11;;;;;;;0.88;0.60;;;;;;;6.69;100.00;95567.31;5016184;28;20152;-74
2024/01/04 02:21:37;;;;;;;3.75;0.70;;;;;;;6.65;100.00;95578.16;5022636;28;20061;-75
2024/01/04 02:24:03;;;;;;;1.95;0.60;;;;;;;6.62;100.00;95581.59;5014654;28;20488;-75
2024/01/04 02:26:29;;;;;;;3.17;0.90;;;;;;;6.62;100.00;95592.47;5022945;28;20041;-72
2024/01/04 02:28:54;;;;;;;5.63;0.93;;;;;;;6.61;100.00;95592.84;5020417;28;20136;-71
2024/01/04 02:31:20;;;;;;;5.68;0.70;;;;;;;6.64;100.00;95586.69;5019382;28;20396;-72
2024/01/04 02:33:45;;;;;;;2.38;0.70;;;;;;;6.66;100.00;95582.44;5015037;28;20034;-74
2024/01/04 02:36:10;;;;;;;4.10;0.65;;;;;;;6.60;100.00;95583.13;5022965;28;20049;-72
2024/01/04 02:38:36;;;;;;;3.22;0.80;;;;;;;6.65;100.00;95580.88;5019970;28;20511;-72
2024/01/04 02:41:01;;;;;;;4.57;1.00;;;;;;;6.63;100.00;95599.50;5018235;28;20481;-74
2024/01/04 02:43:27;;;;;;;5.78;0.80;;;;;;;6.59;100.00;95604.13;5011797;28;20042;-70
2024/01/04 02:45:52;;;;;;;0.88;0.63;;;;;;;6.66;100.00;95597.97;5010955;28;20038;-72
2024/01/04 02:48:17;;;;;;;1.95;0.80;;;;;;;6.64;100.00;95611.94;5022788;28;20033;-73
2024/01/04 02:50:42;;;;;;;1.35;0.82;;;;;;;6.70;100.00;95609.72;5010157;28;20042;-71
2024/01/04 02:53:08;;;;;;;4.32;0.80;;;;;;;6.69;100.00;95610.84;5014243;28;20503;-73
2024/01/04 02:55:33;;;;;;;1.88;0.65;;;;;;;6.67;100.00;95605.00;5028923;28;20050;-73
2024/01/04 02:57:59;;;;;;;7.88;0.80;;;;;;;6.67;100.00;95603.03;5035924;28;20543;-72
2024/01/04 03:00:26;;;;;;;1.73;0.82;;;;;;;6.66;100.00;95604.22;5024356;28;20049;-73
2024/01/04 03:02:52;;;;;;;3.22;0.70;;;;;;;6.64;100.00;95619.31;5015160;28;20172;-72
2024/01/04 03:05:18;;;;;;;2.47;0.65;;;;;;;6.67;100.00;95619.38;5042848;28;20045;-72
2024/01/04 03:07:43;;;;;;;1.58;0.82;;;;;;;6.66;100.00;95614.28;5055442;28;20057;-73
2024/01/04 03:10:09;;;;;;;3.42;1.00;;;;;;;6.62;100.00;95618.91;5039360;28;20041;-71
2024/01/04 03:12:37;;;;;;;4.65;1.00;;;;;;;6.65;100.00;95610.78;5022519;28;20613;-71
2024/01/04 03:15:03;;;;;;;3.05;0.60;;;;;;;6.59;100.00;95620.44;5010970;28;20733;-74
2024/01/04 03:17:28;;;;;;;3.10;0.90;;;;;;;6.63;100.00;95609.59;5017632;28;20072;-74
2024/01/04 03:19:54;;;;;;;3.25;0.85;;;;;;;6.61;100.00;95611.88;5021696;28;20044;-74
2024/01/04 03:22:19;;;;;;;12.68;5.78;;;;;;;6.65;100.00;95623.63;5008400;28;20088;-72
2024/01/04 03:24:44;;;;;;;2.78;0.68;;;;;;;6.63;100.00;95634.09;5036996;28;20445;-74
2024/01/04 03:27:12;;;;;;;3.08;1.55;;;;;;;6.58;100.00;95616.13;5001806;28;20057;-74
2024/01/04 03:29:37;;;;;;;4.20;1.08;;;;;;;6.54;100.00;95628.91;5017847;28;20033;-75
2024/01/04 03:32:04;;;;;;;2.58;0.60;;;;;;;6.60;100.00;95621.22;5014098;28;20496;-72
2024/01/04 03:34:30;;;;;;;2.20;0.80;;;;;;;6.58;100.00;95632.47;5029113;28;20053;-73
2024/01/04 03:36:55;;;;;;;3.72;1.10;;;;;;;6.62;100.00;95621.63;5021816;28;20049;-73
2024/01/04 03:39:20;;;;;;;2.53;0.80;;;;;;;6.54;100.00;95634.34;5009482;28;20364;-71
2024/01/04 03:41:46;;;;;;;1.48;0.68;;;;;;;6.55;100.00;95627.75;5032320;28;20046;-73
2024/01/04 03:44:11;;;;;;;1.90;0.80;;;;;;;6.52;100.00;95625.78;5027976;28;20116;-73
2024/01/04 03:46:36;;;;;;;4.20;0.93;;;;;;;6.56;100.00;95610.28;5002054;28;20504;-71
2024/01/04 03:49:02;;;;;;;2.45;0.90;;;;;;;6.54;100.00;95609.09;5015764;28;20400;-72
2024/01/04 03:51:27;;;;;;;6.25;0.63;;;;;;;6.55;100.00;95630.47;5024811;28;20081;-73
2024/01/04 03:53:53;;;;;;;3.08;0.63;;;;;;;6.51;100.00;95637.78;5007797;28;20462;-73
2024/01/04 03:56:18;;;;;;;2.75;0.90;;;;;;;6.45;100.00;95648.22;5022811;28;20041;-73
2024/01/04 03:58:43;;;;;;;3.45;0.80;;;;;;;6.43;100.00;95652.47;5012244;28;20056;-73
2024/01/04 04:01:09;;;;;;;5.53;1.30;;;;;;;6.36;100.00;95650.41;5016415;28;20045;-74
2024/01/04 04:03:34;;;;;;;2.92;0.90;;;;;;;6.38;100.00;95655.47;5012426;28;20492;-73
2024/01/04 04:06:06;;;;;;;1.70;0.55;;;;;;;6.29;100.00;95658.44;5014137;28;20125;-73
2024/01/04 04:08:32;;;;;;;2.83;0.90;;;;;;;6.26;100.00;95681.69;5018405;28;20162;-74
2024/01/04 04:10:57;;;;;;;3.88;0.85;;;;;;;6.19;100.00;95683.53;5012577;28;20736;-74
2024/01/04 04:13:24;;;;;;;2.47;0.80;;;;;;;6.05;100.00;95701.16;5018981;28;20099;-73
2024/01/04 04:15:49;;;;;;;7.15;1.00;;;;;;;5.99;100.00;95718.13;5013205;28;20430;-74
2024/01/04 04:18:15;;;;;;;3.28;0.95;;;;;;;5.86;100.00;95701.16;5008096;28;20104;-74
2024/01/04 04:20:40;;;;;;;1.77;0.82;;;;;;;5.85;100.00;95713.97;5011090;28;20040;-73
2024/01/04 04:23:06;;;;;;;5.18;0.88;;;;;;;5.69;100.00;95718.69;5007361;28;20058;-74
2024/01/04 04:25:31;;;;;;;3.63;1.00;;;;;;;5.67;100.00;95712.84;5019290;28;20514;-73
2024/01/04 04:27:56;;;;;;;2.75;0.80;;;;;;;5.61;100.00;95733.28;5036483;28;20046;-74
2024/01/04 04:30:22;;;;;;;6.88;1.02;;;;;;;5.65;100.00;95709.69;5024609;28;20349;-75
2024/01/04 04:32:47;;;;;;;6.97;1.15;;;;;;;5.62;100.00;95703.06;5050440;28;20047;-73
2024/01/04 04:35:13;;;;;;;4.32;1.00;;;;;;;5.60;100.00;95705.34;5001134;28;20045;-71
2024/01/04 04:37:38;;;;;;;2.42;0.85;;;;;;;5.47;100.00;95712.84;5016043;28;20488;-73
2024/01/04 04:40:04;;;;;;;2.55;0.90;;;;;;;5.50;100.00;95727.66;5030177;28;20052;-72
2024/01/04 04:42:30;;;;;;;6.75;1.35;;;;;;;5.55;100.00;95714.56;5008814;28;20103;-72
2024/01/04 04:44:55;;;;;;;3.47;0.90;;;;;;;5.65;100.00;95718.63;5014664;28;20037;-70
2024/01/04 04:47:21;;;;;;;1.80;0.90;;;;;;;5.68;100.00;95719.84;5005978;28;20185;-73
2024/01/04 04:49:46;;;;;;;3.53;1.15;;;;;;;5.62;100.00;95719.34;5018716;28;20042;-75
2024/01/04 04:52:11;;;;;;;5.50;1.00;;;;;;;5.61;100.00;95728.63;5019047;28;20046;-73
2024/01/04 04:54:37;;;;;;;4.43;1.13;;;;;;;5.65;100.00;95726.78;5017727;28;20091;-73
2024/01/04 04:57:04;;;;;;;3.33;1.20;;;;;;;5.69;100.00;95735.00;5013306;28;20547;-74
2024/01/04 04:59:29;;;;;;;7.72;1.58;;;;;;;5.68;100.00;95749.75;5001686;28;20046;-73
2024/01/04 05:01:55;;;;;;;6.70;1.38;;;;;;;5.71;100.00;95741.66;5006115;28;20060;-74
2024/01/04 05:04:21;;;;;;;3.08;1.00;;;;;;;5.73;100.00;95769.25;5005369;28;20041;-70
2024/01/04 05:06:47;;;;;;;2.28;0.88;;;;;;;5.71;100.00;95760.69;5008374;28;20038;-71
2024/01/04 05:09:12;;;;;;;3.65;1.15;;;;;;;5.71;100.00;95766.09;5003329;28;20067;-71
2024/01/04 05:11:38;;;;;;;2.45;0.80;;;;;;;5.69;100.00;95757.53;5016147;28;20041;-72
2024/01/04 05:14:03;;;;;;;3.63;0.82;;;;;;;5.69;100.00;95770.31;5026033;28;20037;-73
2024/01/04 05:16:29;;;;;;;2.55;0.80;;;;;;;5.73;100.00;95774.69;5023085;28;20080;-74
2024/01/04 05:18:55;;;;;;;3.05;0.80;;;;;;;5.70;100.00;95766.47;5013378;28;20350;-73
2024/01/04 05:21:20;;;;;;;3.00;0.57;;;;;;;5.73;100.00;95784.78;5015785;28;20048;-74
2024/01/04 05:23:46;;;;;;;2.20;0.75;;;;;;;5.72;100.00;95783.19;5004773;28;20499;-71
2024/01/04 05:26:21;;;;;;;3.22;1.00;;;;;;;5.67;100.00;95776.13;5022900;28;20685;-71
2024/01/04 05:28:47;;;;;;;2.63;0.80;;;;;;;5.73;100.00;95784.78;5011861;28;20166;-71
2024/01/04 05:31:12;;;;;;;6.40;1.48;;;;;;;5.78;100.00;95768.19;4999201;28;20056;-73
2024/01/04 05:33:37;;;;;;;2.10;0.70;;;;;;;5.79;100.00;95796.13;5007783;28;20046;-70
2024/01/04 05:36:04;;;;;;;2.63;0.80;;;;;;;5.85;100.00;95802.84;4996373;28;20037;-72
2024/01/04 05:38:29;;;;;;;2.25;0.90;;;;;;;5.83;100.00;95795.06;5021184;28;20087;-72
2024/01/04 05:40:54;;;;;;;4.93;1.20;;;;;;;5.78;100.00;95803.50;5026397;28;20038;-73
2024/01/04 05:43:20;;;;;;;3.13;1.10;;;;;;;5.73;100.00;95807.28;5026357;28;20026;-73
2024/01/04 05:45:45;;;;;;;3.15;1.05;;;;;;;5.82;100.00;95800.88;5029760;28;20037;-74
2024/01/04 05:48:11;;;;;;;2.10;0.80;;;;;;;5.82;100.00;95801.66;5011457;28;20468;-72
2024/01/04 05:50:36;;;;;;;2.45;0.77;;;;;;;5.79;100.00;95821.38;5021809;28;20065;-74
2024/01/04 05:53:01;;;;;;;3.05;0.55;;;;;;;5.75;100.00;95820.53;5019351;28;20040;-72
2024/01/04 05:55:27;;;;;;;2.70;0.90;;;;;;;5.73;100.00;95823.59;5004569;28;20073;-72
2024/01/04 05:57:52;;;;;;;1.30;0.70;;;;;;;5.82;100.00;95825.31;5028734;28;20038;-71
2024/01/04 06:00:17;;;;;;;2.83;0.70;;;;;;;5.80;100.00;95838.47;5006863;28;20077;-71
2024/01/04 06:02:43;;;;;;;3.15;0.90;;;;;;;5.75;100.00;95837.59;5011712;28;20099;-72
2024/01/04 06:05:08;;;;;;;1.73;0.90;;;;;;;5.71;100.00;95836.75;5033554;28;20041;-74
2024/01/04 06:07:34;;;;;;;4.25;0.90;;;;;;;5.64;100.00;95852.13;5006935;28;20044;-72
2024/01/04 06:09:59;;;;;;;3.65;0.98;;;;;;;5.66;100.00;95849.84;5022301;28;20041;-72
2024/01/04 06:12:25;;;;;;;7.45;1.10;;;;;;;5.62;100.00;95846.22;5025479;28;20443;-72
2024/01/04 06:14:51;;;;;;;5.93;1.48;;;;;;;5.69;100.00;95843.66;5034216;28;20076;-72
2024/01/04 06:17:16;;;;;;;5.75;1.00;;;;;;;5.69;100.00;95849.91;5014905;28;20341;-72
2024/01/04 06:19:42;;;;;;;4.82;1.10;;;;;;;5.77;100.00;95852.78;5014690;28;20611;-73
2024/01/04 06:22:07;;;;;;;3.60;0.85;;;;;;;5.75;100.00;95859.34;5011818;28;20069;-74
2024/01/04 06:24:32;;;;;;;5.90;1.20;;;;;;;5.78;100.00;95857.06;5011305;28;20042;-74
2024/01/04 06:26:58;;;;;;;2.20;0.90;;;;;;;5.89;100.00;95864.31;5004530;28;20380;-73
2024/01/04 06:29:23;;;;;;;3.70;1.00;;;;;;;5.91;100.00;95863.94;5016569;28;20366;-73
2024/01/04 06:31:48;;;;;;;7.07;1.20;;;;;;;5.90;100.00;95852.28;5007550;28;20042;-72
2024/01/04 06:34:14;;;;;;;3.05;0.98;;;;;;;6.01;100.00;95870.75;5013180;28;20069;-72
2024/01/04 06:36:39;;;;;;;5.13;1.08;;;;;;;5.93;100.00;95867.88;5015750;28;20049;-73
2024/01/04 06:39:05;;;;;;;5.53;1.15;;;;;;;5.95;100.00;95875.66;5012036;28;20084;-71
2024/01/04 06:41:31;;;;;;;7.05;1.48;;;;;;;5.97;100.00;95878.84;5011645;28;20744;-73
2024/01/04 06:43:56;;;;;;;3.72;1.30;;;;;;;5.96;100.00;95879.19;5018519;28;20034;-73
2024/01/04 06:46:22;;;;;;;4.60;1.05;;;;;;;6.01;100.00;95876.19;5010702;28;20500;-73
2024/01/04 06:48:47;;;;;;;3.65;1.05;;;;;;;6.00;100.00;95888.22;5016127;28;20042;-72
2024/01/04 06:51:13;;;;;;;7.43;1.27;;;;;;;6.01;100.00;95887.84;5014312;28;20216;-72
2024/01/04 06:53:39;;;;;;;6.10;1.35;;;;;;;6.07;100.00;95886.44;5006322;28;20042;-74
2024/01/04 06:56:04;;;;;;;12.40;1.38;;;;;;;6.03;100.00;95885.59;5012660;28;20077;-73
2024/01/04 06:58:30;;;;;;;5.97;1.02;;;;;;;6.07;100.00;95893.81;5002332;28;20042;-73
2024/01/04 07:00:56;;;;;;;4.22;0.90;;;;;;;6.09;100.00;95891.53;5009923;28;20042;-74
2024/01/04 07:03:23;;;;;;;5.63;1.23;;;;;;;6.06;100.00;95898.44;5006610;28;20080;-72
2024/01/04 07:05:49;;;;;;;4.53;1.10;;;;;;;6.06;100.00;95892.22;5002793;28;20070;-73
2024/01/04 07:08:14;;;;;;;6.70;1.17;;;;;;;6.05;100.00;95898.81;5013424;28;20050;-72
2024/01/04 07:10:42;;;;;;;5.78;0.95;;;;;;;6.04;100.00;95903.47;5005774;28;20046;-72
2024/01/04 07:13:08;;;;;;;7.43;1.15;;;;;;;6.19;100.00;95895.59;5012089;28;20044;-72
2024/01/04 07:15:33;;;;;;;3.50;1.10;;;;;;;6.15;100.00;95903.69;5012911;28;20400;-71
2024/01/04 07:17:59;;;;;;;6.05;1.33;;;;;;;6.14;100.00;95918.44;5024851;28;20069;-73
2024/01/04 07:20:24;;;;;;;7.15;1.50;;;;;;;6.11;100.00;95921.88;5014651;28;20045;-72
2024/01/04 07:22:52;;;;;;;8.75;1.50;;;;;;;6.07;100.00;95918.28;5019173;28;20575;-74
2024/01/04 07:25:18;;;;;;;4.53;1.45;;;;;;;6.09;100.00;95924.94;5034865;28;20650;-72
2024/01/04 07:27:43;;;;;;;4.55;1.65;;;;;;;6.08;100.00;95917.91;5042498;28;20049;-72
2024/01/04 07:30:10;;;;;;;4.80;1.33;;;;;;;6.05;100.00;95929.50;5019328;28;20085;-73
2024/01/04 07:32:35;;;;;;;6.53;1.40;;;;;;;6.09;100.00;95924.94;5025873;28;20054;-72
2024/01/04 07:35:01;;;;;;;7.18;1.58;;;;;;;6.07;100.00;95935.38;5008597;28;20041;-73
2024/01/04 07:37:27;;;;;;;6.80;1.70;;;;;;;6.11;100.00;95935.47;5001641;28;20192;-71
2024/01/04 07:39:52;;;;;;;7.32;1.27;;;;;;;6.16;100.00;95918.06;5018893;28;20057;-72
2024/01/04 07:42:18;;;;;;;5.03;1.13;;;;;;;6.11;100.00;95919.91;5010904;28;20056;-73
2024/01/04 07:44:44;;;;;;;6.82;1.58;;;;;;;6.07;100.00;95915.56;5013144;28;20040;-70
2024/01/04 07:47:09;;;;;;;3.25;1.10;;;;;;;6.10;100.00;95918.38;5012019;28;20037;-72
2024/01/04 07:49:35;;;;;;;7.28;1.38;;;;;;;6.01;100.00;95919.69;5019827;28;20550;-74
2024/01/04 07:52:00;;;;;;;4.38;1.75;;;;;;;6.03;100.00;95914.69;5017415;28;20417;-74
2024/01/04 07:54:27;;;;;;;7.35;1.38;;;;;;;5.96;100.00;95923.50;5024615;28;20400;-72
2024/01/04 07:56:52;;;;;;;7.60;1.30;;;;;;;5.97;100.00;95910.69;5009303;28;20074;-74
2024/01/04 07:59:18;;;;;;;3.55;0.90;;;;;;;5.92;100.00;95919.88;5007873;28;20077;-74
2024/01/04 08:01:44;;;;;;;5.05;1.23;;;;;;;5.95;100.00;95927.31;5022930;28;20111;-74
2024/01/04 08:04:09;;;;;;;7.40;1.40;;;;;;;6.09;100.00;95930.38;5021402;28;20128;-73
2024/01/04 08:06:35;;;;;;;5.47;1.20;;;;;;;6.13;100.00;95930.44;5004755;28;20037;-72
2024/01/04 08:09:00;;;;;;;4.13;1.50;;;;;;;6.13;100.00;95933.16;5013241;28;20327;-75
2024/01/04 08:11:25;;;;;;;7.45;1.60;;;;;;;6.16;100.00;95932.47;5004901;28;20056;-72
2024/01/04 08:13:51;;;;;;;5.85;1.23;;;;;;;6.09;100.00;95935.81;5009125;28;20038;-73
2024/01/04 08:16:18;;;;;;;7.40;1.30;;;;;;;6.28;100.00;95931.53;5003841;28;20047;-72
2024/01/04 08:18:43;;;;;;;5.78;1.15;;;;;;;6.45;100.00;95936.53;5006830;28;20068;-73
2024/01/04 08:21:10;;;;;;;4.97;1.20;;;;;;;6.65;100.00;95945.47;5002326;28;20041;-72
2024/01/04 08:23:35;;;;;;;5.18;1.15;;;;;;;6.80;100.00;95932.91;5001842;28;20046;-73
2024/01/04 08:26:05;;;;;;;5.10;1.00;;;;;;;7.42;100.00;95938.28;5022752;28;20093;-73
2024/01/04 08:28:30;;;;;;;7.43;1.20;;;;;;;7.62;100.00;95940.94;5014112;28;20493;-73
2024/01/04 08:30:56;;;;;;;7.80;1.13;;;;;;;7.17;100.00;95935.16;5014939;28;20045;-73
2024/01/04 08:33:21;;;;;;;3.90;1.10;;;;;;;7.16;100.00;95951.84;5027618;28;20424;-73
2024/01/04 08:35:47;;;;;;;5.07;1.40;;;;;;;7.17;100.00;95945.25;5008235;28;20037;-71
2024/01/04 08:38:12;;;;;;;9.95;1.38;;;;;;;6.96;100.00;95932.03;4995474;28;20042;-73
2024/01/04 08:40:38;;;;;;;3.65;1.10;;;;;;;6.97;100.00;95926.25;5033435;28;20044;-73
2024/01/04 08:43:04;;;;;;;6.40;1.77;;;;;;;6.99;100.00;95918.50;5003121;28;20045;-74
2024/01/04 08:45:29;;;;;;;9.52;1.00;;;;;;;7.21;100.00;95946.09;5018694;28;20068;-74
2024/01/04 08:47:55;;;;;;;5.82;1.33;;;;;;;7.55;100.00;95936.16;5004999;28;20037;-73
2024/01/04 08:50:21;;;;;;;8.98;1.38;;;;;;;8.02;100.00;95953.97;5002928;28;23407;-72
2024/01/04 08:52:46;;;;;;;5.38;1.08;;;;;;;7.90;100.00;95937.84;5014648;28;20052;-74
2024/01/04 08:55:12;;;;;;;6.28;1.05;;;;;;;8.30;100.00;95961.00;5015798;28;20046;-74
2024/01/04 08:57:37;;;;;;;5.03;0.93;;;;;;;8.41;100.00;95963.88;5004032;28;20121;-72
2024/01/04 09:00:04;;;;;;;4.72;1.20;;;;;;;8.45;100.00;95956.53;5030059;28;20038;-74
2024/01/04 09:02:30;;;;;;;6.43;1.10;;;;;;;8.90;100.00;95975.78;5001572;28;20041;-73
2024/01/04 09:04:55;;;;;;;4.30;0.95;;;;;;;9.24;100.00;95983.94;5001184;28;20048;-72
2024/01/04 09:07:21;;;;;;;7.80;1.92;;;;;;;8.59;100.00;95984.00;5005036;28;20037;-73
2024/01/04 09:09:46;;;;;;;9.60;1.25;;;;;;;7.94;100.00;95979.59;5003873;28;20050;-72
2024/01/04 09:12:11;;;;;;;3.47;1.30;;;;;;;8.14;100.00;95987.63;5001407;28;20116;-72
2024/01/04 09:14:37;;;;;;;4.38;1.02;;;;;;;8.14;100.00;95987.63;5009665;28;20068;-71
2024/01/04 09:17:05;;;;;;;8.30;1.55;;;;;;;8.61;100.00;96002.75;5029696;28;20034;-73
2024/01/04 09:19:30;;;;;;;5.18;1.10;;;;;;;8.78;100.00;95985.78;5008452;28;20547;-72
2024/01/04 09:21:56;;;;;;;3.80;1.10;;;;;;;9.05;100.00;95998.56;4998794;28;20042;-72
2024/01/04 09:24:23;;;;;;;7.72;1.92;;;;;;;8.57;100.00;96008.16;4985797;28;20132;-73
2024/01/04 09:26:48;;;;;;;4.72;1.13;;;;;;;8.47;100.00;96017.00;5016046;28;20056;-73
2024/01/04 09:29:16;;;;;;;3.80;1.00;;;;;;;8.07;100.00;96009.34;4997641;28;20049;-72
2024/01/04 09:31:41;;;;;;;4.65;0.88;;;;;;;7.95;100.00;96013.09;5008122;28;20505;-72
2024/01/04 09:34:07;;;;;;;2.05;0.95;;;;;;;7.79;100.00;96010.50;5005912;28;20056;-72
2024/01/04 09:36:32;;;;;;;2.78;0.95;;;;;;;7.72;100.00;96013.88;5027148;28;20042;-76
2024/01/04 09:38:58;;;;;;;5.18;1.00;;;;;;;8.11;100.00;96002.03;5012602;28;20469;-73
2024/01/04 09:41:30;;;;;;;4.88;0.98;;;;;;;8.19;100.00;95988.13;5021944;28;20041;-73
2024/01/04 09:44:00;;;;;;;2.38;0.90;;;;;;;8.61;100.00;96008.22;5007030;28;20054;-71
2024/01/04 09:46:29;;;;;;;3.85;0.80;;;;;;;8.93;100.00;95999.59;5005336;28;20046;-71
2024/01/04 09:49:01;;;;;;;3.33;0.98;;;;;;;9.06;100.00;96000.94;5001597;28;20038;-74
2024/01/04 09:51:33;;;;;;;2.50;0.70;;;;;;;9.34;100.00;95999.66;5006885;28;20046;-72
2024/01/04 09:54:03;;;;;;;3.25;0.73;;;;;;;9.31;100.00;96012.13;5019976;28;20065;-70
2024/01/04 09:56:29;;;;;;;3.47;1.00;;;;;;;9.41;100.00;96009.88;5007369;28;20037;-71
2024/01/04 09:58:55;;;;;;;1.58;0.70;;;;;;;9.84;100.00;96019.25;5019023;28;20041;-72
2024/01/04 10:01:33;;;;;;;1.90;0.90;;;;;;;9.49;100.00;96025.16;5013570;28;20041;-73
2024/01/04 10:04:13;;;;;;;2.63;0.80;;;;;;;10.17;100.00;96030.44;5020951;28;20124;-71
2024/01/04 10:06:40;;;;;;;1.77;0.77;;;;;;;9.86;100.00;96019.66;5017396;28;20033;-72
2024/01/04 10:09:17;;;;;;;7.38;1.38;;;;;;;10.02;100.00;96019.38;5014503;28;20042;-73
2024/01/04 10:11:51;;;;;;;8.52;2.45;;;;;;;10.19;100.00;96023.44;5017847;28;20045;-72
2024/01/04 10:14:17;;;;;;;4.70;1.70;;;;;;;10.26;100.00;96034.44;5013440;28;20095;-72
2024/01/04 10:16:43;;;;;;;4.32;0.77;;;;;;;10.46;100.00;96031.44;5017833;28;20050;-72
2024/01/04 10:19:09;;;;;;;4.68;0.70;;;;;;;10.50;100.00;96033.03;5008626;28;20589;-71
2024/01/04 10:21:34;;;;;;;4.15;1.05;;;;;;;9.90;100.00;96033.34;5024656;28;20104;-73
2024/01/04 10:24:03;;;;;;;3.13;0.95;;;;;;;10.12;100.00;96037.06;5018009;28;20034;-72
2024/01/04 10:26:28;;;;;;;4.22;0.93;;;;;;;9.48;100.00;96034.53;5007782;28;20041;-72
2024/01/04 10:28:55;;;;;;;4.25;0.90;;;;;;;9.43;100.00;96040.34;5015153;28;20030;-73
2024/01/04 10:31:21;;;;;;;5.75;1.40;;;;;;;9.36;100.00;96030.13;5010377;28;20037;-72
2024/01/04 10:33:46;;;;;;;3.00;0.98;;;;;;;9.21;100.00;96050.28;5028352;28;20049;-71
2024/01/04 10:36:13;;;;;;;1.08;0.50;;;;;;;8.84;100.00;96049.06;5018619;28;20048;-73
2024/01/04 10:38:38;;;;;;;1.95;0.57;;;;;;;8.58;100.00;96039.75;5017619;28;20037;-71
2024/01/04 10:41:04;;;;;;;2.72;0.55;;;;;;;8.27;100.00;96040.84;5013695;28;20148;-73
2024/01/04 10:43:34;;;;;;;11.98;6.15;;;;;;;8.17;100.00;96050.44;5018980;28;20041;-72
2024/01/04 10:46:08;;;;;;;2.60;0.75;;;;;;;8.11;100.00;96046.47;5013192;28;20041;-71
2024/01/04 10:48:37;;;;;;;1.08;0.52;;;;;;;8.16;100.00;96045.38;5020976;28;20045;-72
2024/01/04 10:51:04;;;;;;;1.15;0.50;;;;;;;8.06;100.00;96052.22;5011092;28;20049;-72
2024/01/04 10:53:32;;;;;;;2.13;0.90;;;;;;;8.21;100.00;96047.75;5014439;28;20104;-74
2024/01/04 10:55:58;;;;;;;4.38;1.00;;;;;;;8.23;100.00;96034.56;5022205;28;20033;-72
2024/01/04 10:58:24;;;;;;;3.90;0.73;;;;;;;8.34;100.00;96046.41;5023866;28;20056;-72
2024/01/04 11:00:51;;;;;;;2.00;0.65;;;;;;;8.39;100.00;96048.03;5012691;28;20052;-71
2024/01/04 11:03:17;;;;;;;5.20;0.75;;;;;;;8.19;100.00;96034.50;5015468;28;20686;-73
2024/01/04 11:05:44;;;;;;;1.70;0.73;;;;;;;8.39;100.00;96037.09;5020046;28;20103;-74
2024/01/04 11:08:12;;;;;;;0.82;0.50;;;;;;;8.29;100.00;96030.34;5027003;28;20038;-70
2024/01/04 11:10:41;;;;;;;2.83;0.80;;;;;;;8.64;100.00;96031.25;5012051;28;20049;-70
2024/01/04 11:13:06;;;;;;;2.80;0.70;;;;;;;8.62;100.00;96020.69;5014967;28;20065;-71
2024/01/04 11:15:32;;;;;;;4.07;0.98;;;;;;;8.79;100.00;96028.31;5017868;28;20052;-70
2024/01/04 11:18:17;;;;;;;3.33;0.65;;;;;;;8.89;100.00;96029.59;5013961;28;20037;-70
2024/01/04 11:20:55;;;;;;;5.35;0.98;;;;;;;9.17;100.00;96020.97;5004572;28;20388;-71
2024/01/04 11:23:47;;;;;;;4.22;1.35;;;;;;;8.86;100.00;96026.81;5011340;28;20081;-72
2024/01/04 11:26:18;;;;;;;5.78;1.30;;;;;;;8.56;100.00;96016.72;5005605;28;20065;-72
2024/01/04 11:28:46;;;;;;;6.50;0.95;;;;;;;8.18;100.00;96027.47;5018741;28;20093;-69